sensor_id;sensor_type;location;lat;lon;timestamp;P1;durP1;ratioP1;P2;durP2;ratioP2
32427;SDS011;18882;50.952;4.366;2024-01-15T00:01:27;30.60;;;10.27;;
32427;SDS011;18882;50.952;4.366;2024-01-15T00:04:16;39.97;;;11.52;;
32427;SDS011;18882;50.952;4.366;2024-01-15T00:09:25;27.88;;;9.60;;
32427;SDS011;18882;50.952;4.366;2024-01-15T00:12:02;31.95;;;10.38;;
32427;SDS011;18882;50.952;4.366;2024-01-15T00:14:32;24.35;;;9.20;;
32427;SDS011;18882;50.952;4.366;2024-01-15T00:17:00;31.55;;;10.38;;
32427;SDS011;18882;50.952;4.366;2024-01-15T00:19:27;28.75;;;10.25;;
32427;SDS011;18882;50.952;4.366;2024-01-15T04:06:35;10.05;;;4.38;;
32427;SDS011;18882;50.952;4.366;2024-01-15T04:09:03;9.35;;;4.15;;
32427;SDS011;18882;50.952;4.366;2024-01-15T04:11:33;12.35;;;5.25;;
32427;SDS011;18882;50.952;4.366;2024-01-15T04:14:29;15.10;;;4.70;;
32427;SDS011;18882;50.952;4.366;2024-01-15T10:44:44;3.88;;;0.82;;
32427;SDS011;18882;50.952;4.366;2024-01-15T10:47:18;8.32;;;0.93;;
32427;SDS011;18882;50.952;4.366;2024-01-15T10:50:14;6.30;;;0.85;;
32427;SDS011;18882;50.952;4.366;2024-01-15T10:56:35;4.32;;;1.25;;
32427;SDS011;18882;50.952;4.366;2024-01-15T10:59:20;7.38;;;1.35;;
32427;SDS011;18882;50.952;4.366;2024-01-15T11:02:20;6.97;;;0.70;;
32427;SDS011;18882;50.952;4.366;2024-01-15T11:05:08;2.88;;;1.00;;
32427;SDS011;18882;50.952;4.366;2024-01-15T11:07:55;6.82;;;0.60;;
32427;SDS011;18882;50.952;4.366;2024-01-15T11:11:01;7.43;;;0.73;;
32427;SDS011;18882;50.952;4.366;2024-01-15T11:17:09;7.47;;;0.52;;
32427;SDS011;18882;50.952;4.366;2024-01-15T11:19:45;5.45;;;0.50;;
32427;SDS011;18882;50.952;4.366;2024-01-15T11:22:47;6.40;;;0.90;;
32427;SDS011;18882;50.952;4.366;2024-01-15T11:25:44;4.68;;;0.65;;
32427;SDS011;18882;50.952;4.366;2024-01-15T11:28:11;4.47;;;0.80;;
32427;SDS011;18882;50.952;4.366;2024-01-15T11:31:18;8.18;;;0.90;;
32427;SDS011;18882;50.952;4.366;2024-01-15T11:34:20;6.20;;;0.77;;
32427;SDS011;18882;50.952;4.366;2024-01-15T11:37:19;3.08;;;0.73;;
32427;SDS011;18882;50.952;4.366;2024-01-15T11:43:37;4.80;;;0.80;;
32427;SDS011;18882;50.952;4.366;2024-01-15T12:00:01;3.55;;;0.82;;
32427;SDS011;18882;50.952;4.366;2024-01-15T12:02:40;4.65;;;0.70;;
32427;SDS011;18882;50.952;4.366;2024-01-15T12:05:24;1.85;;;0.57;;
32427;SDS011;18882;50.952;4.366;2024-01-15T18:13:06;12.35;;;6.40;;
32427;SDS011;18882;50.952;4.366;2024-01-15T18:15:38;17.80;;;8.73;;
32427;SDS011;18882;50.952;4.366;2024-01-15T18:18:32;12.40;;;6.10;;
32427;SDS011;18882;50.952;4.366;2024-01-15T18:21:19;15.10;;;5.93;;
32427;SDS011;18882;50.952;4.366;2024-01-15T18:23:54;13.73;;;6.93;;
32427;SDS011;18882;50.952;4.366;2024-01-15T18:26:49;11.32;;;6.07;;
32427;SDS011;18882;50.952;4.366;2024-01-15T18:29:34;15.73;;;6.53;;
32427;SDS011;18882;50.952;4.366;2024-01-15T18:32:08;15.65;;;5.82;;
32427;SDS011;18882;50.952;4.366;2024-01-15T18:34:52;18.23;;;5.97;;
32427;SDS011;18882;50.952;4.366;2024-01-15T18:37:50;17.92;;;5.65;;
32427;SDS011;18882;50.952;4.366;2024-01-15T18:40:17;24.73;;;8.35;;
32427;SDS011;18882;50.952;4.366;2024-01-15T18:42:58;17.02;;;6.93;;
32427;SDS011;18882;50.952;4.366;2024-01-15T18:45:35;21.48;;;7.50;;
32427;SDS011;18882;50.952;4.366;2024-01-15T18:48:08;21.55;;;7.43;;
32427;SDS011;18882;50.952;4.366;2024-01-15T18:50:48;14.98;;;6.20;;
32427;SDS011;18882;50.952;4.366;2024-01-15T18:53:20;23.38;;;6.18;;
32427;SDS011;18882;50.952;4.366;2024-01-15T18:55:48;17.75;;;5.35;;
32427;SDS011;18882;50.952;4.366;2024-01-15T18:58:29;14.70;;;5.75;;
32427;SDS011;18882;50.952;4.366;2024-01-15T19:00:56;10.60;;;4.75;;
32427;SDS011;18882;50.952;4.366;2024-01-15T19:03:26;8.75;;;4.05;;
32427;SDS011;18882;50.952;4.366;2024-01-15T21:15:02;6.70;;;1.95;;
32427;SDS011;18882;50.952;4.366;2024-01-15T21:17:34;4.70;;;2.42;;
32427;SDS011;18882;50.952;4.366;2024-01-15T21:20:00;13.25;;;2.30;;
32427;SDS011;18882;50.952;4.366;2024-01-15T21:22:36;13.35;;;2.58;;
32427;SDS011;18882;50.952;4.366;2024-01-15T21:25:15;7.50;;;1.80;;
32427;SDS011;18882;50.952;4.366;2024-01-15T21:27:43;7.32;;;2.38;;
32427;SDS011;18882;50.952;4.366;2024-01-15T21:30:20;13.13;;;2.08;;
32427;SDS011;18882;50.952;4.366;2024-01-15T21:32:48;12.82;;;2.25;;
32427;SDS011;18882;50.952;4.366;2024-01-15T21:35:25;7.53;;;2.28;;
32427;SDS011;18882;50.952;4.366;2024-01-15T21:37:57;9.48;;;2.25;;
32427;SDS011;18882;50.952;4.366;2024-01-15T21:40:24;4.57;;;1.70;;
32427;SDS011;18882;50.952;4.366;2024-01-15T21:42:53;6.10;;;1.98;;
32427;SDS011;18882;50.952;4.366;2024-01-15T21:45:20;9.82;;;2.67;;
32427;SDS011;18882;50.952;4.366;2024-01-15T21:47:52;10.32;;;2.28;;
32427;SDS011;18882;50.952;4.366;2024-01-15T21:50:30;13.57;;;2.97;;
32427;SDS011;18882;50.952;4.366;2024-01-15T21:52:59;20.15;;;2.28;;
32427;SDS011;18882;50.952;4.366;2024-01-15T21:55:27;12.82;;;2.15;;
32427;SDS011;18882;50.952;4.366;2024-01-15T21:57:56;3.83;;;2.10;;
32427;SDS011;18882;50.952;4.366;2024-01-15T22:00:36;6.88;;;3.17;;
32427;SDS011;18882;50.952;4.366;2024-01-15T22:03:04;8.68;;;2.42;;
32427;SDS011;18882;50.952;4.366;2024-01-15T22:05:32;6.60;;;2.95;;
32427;SDS011;18882;50.952;4.366;2024-01-15T22:07:58;9.25;;;2.47;;
32427;SDS011;18882;50.952;4.366;2024-01-15T22:10:27;9.70;;;2.08;;
